sensor_id;sensor_type;location;lat;lon;timestamp;pressure;altitude;pressure_sealevel;temperature;humidity
26635;BME280;14490;54.208;37.686;2022-08-03T00:01:57;98875.63;;;19.24;82.14
26635;BME280;14490;54.208;37.686;2022-08-03T00:04:26;99098.72;;;20.57;82.50
26635;BME280;14490;54.208;37.686;2022-08-03T00:06:53;99083.41;;;20.35;83.21
26635;BME280;14490;54.208;37.686;2022-08-03T00:09:21;99082.16;;;20.16;83.80
26635;BME280;14490;54.208;37.686;2022-08-03T00:11:50;99100.59;;;20.29;83.95
26635;BME280;14490;54.208;37.686;2022-08-03T00:14:18;99097.56;;;20.24;84.19
26635;BME280;14490;54.208;37.686;2022-08-03T00:16:45;99095.88;;;20.23;84.28
26635;BME280;14490;54.208;37.686;2022-08-03T00:19:13;99042.19;;;19.88;84.54
26635;BME280;14490;54.208;37.686;2022-08-03T00:21:40;99100.41;;;20.16;84.80
26635;BME280;14490;54.208;37.686;2022-08-03T00:24:08;99078.47;;;20.03;84.83
26635;BME280;14490;54.208;37.686;2022-08-03T00:26:36;99080.13;;;20.04;85.13
26635;BME280;14490;54.208;37.686;2022-08-03T00:29:05;99073.25;;;19.87;85.34
26635;BME280;14490;54.208;37.686;2022-08-03T00:31:34;99018.63;;;19.44;86.22
26635;BME280;14490;54.208;37.686;2022-08-03T00:34:03;99105.56;;;19.83;86.60
26635;BME280;14490;54.208;37.686;2022-08-03T00:36:34;99105.38;;;19.85;86.56
26635;BME280;14490;54.208;37.686;2022-08-03T00:39:03;99047.22;;;19.48;86.74
26635;BME280;14490;54.208;37.686;2022-08-03T00:41:32;99108.13;;;19.85;86.76
26635;BME280;14490;54.208;37.686;2022-08-03T00:43:59;99106.41;;;19.84;86.75
26635;BME280;14490;54.208;37.686;2022-08-03T00:46:29;99104.72;;;19.83;87.08
26635;BME280;14490;54.208;37.686;2022-08-03T00:48:57;99096.72;;;19.81;86.72
26635;BME280;14490;54.208;37.686;2022-08-03T00:51:25;99098.59;;;19.81;86.95
26635;BME280;14490;54.208;37.686;2022-08-03T00:53:56;99097.13;;;19.78;87.03
26635;BME280;14490;54.208;37.686;2022-08-03T00:56:25;99097.88;;;19.72;87.38
26635;BME280;14490;54.208;37.686;2022-08-03T00:58:54;99059.34;;;19.46;87.57
26635;BME280;14490;54.208;37.686;2022-08-03T01:01:23;99090.00;;;19.62;87.65
26635;BME280;14490;54.208;37.686;2022-08-03T01:03:54;99088.97;;;19.63;87.86
26635;BME280;14490;54.208;37.686;2022-08-03T01:06:26;99092.34;;;19.66;87.42
26635;BME280;14490;54.208;37.686;2022-08-03T01:09:04;99088.13;;;19.63;87.74
26635;BME280;14490;54.208;37.686;2022-08-03T01:11:42;99093.59;;;19.63;87.65
26635;BME280;14490;54.208;37.686;2022-08-03T01:14:23;99061.44;;;19.44;87.82
26635;BME280;14490;54.208;37.686;2022-08-03T01:16:56;99048.91;;;19.35;87.61
26635;BME280;14490;54.208;37.686;2022-08-03T01:19:43;99093.75;;;19.61;87.65
26635;BME280;14490;54.208;37.686;2022-08-03T01:22:36;99094.81;;;19.60;87.81
26635;BME280;14490;54.208;37.686;2022-08-03T01:25:23;99093.97;;;19.60;87.79
26635;BME280;14490;54.208;37.686;2022-08-03T01:28:14;99100.66;;;19.57;87.68
26635;BME280;14490;54.208;37.686;2022-08-03T01:30:52;99073.59;;;19.41;87.82
26635;BME280;14490;54.208;37.686;2022-08-03T01:33:27;99099.72;;;19.50;88.46
26635;BME280;14490;54.208;37.686;2022-08-03T01:35:59;99084.84;;;19.38;88.17
26635;BME280;14490;54.208;37.686;2022-08-03T01:38:32;99103.88;;;19.46;88.16
26635;BME280;14490;54.208;37.686;2022-08-03T01:41:06;99116.38;;;19.55;88.09
26635;BME280;14490;54.208;37.686;2022-08-03T01:43:42;99111.38;;;19.59;88.17
26635;BME280;14490;54.208;37.686;2022-08-03T01:46:18;99074.63;;;19.40;88.01
26635;BME280;14490;54.208;37.686;2022-08-03T01:48:48;99084.59;;;19.48;87.99
26635;BME280;14490;54.208;37.686;2022-08-03T01:51:19;99106.38;;;19.62;88.00
26635;BME280;14490;54.208;37.686;2022-08-03T01:53:49;99110.44;;;19.67;87.99
26635;BME280;14490;54.208;37.686;2022-08-03T01:56:21;98952.34;;;18.79;87.66
26635;BME280;14490;54.208;37.686;2022-08-03T01:58:53;99109.91;;;19.78;87.71
26635;BME280;14490;54.208;37.686;2022-08-03T02:01:25;99108.03;;;19.78;87.45
26635;BME280;14490;54.208;37.686;2022-08-03T02:03:58;99104.31;;;19.86;87.34
26635;BME280;14490;54.208;37.686;2022-08-03T02:06:29;99092.75;;;19.84;87.11
26635;BME280;14490;54.208;37.686;2022-08-03T02:09:05;99100.16;;;19.90;87.05
26635;BME280;14490;54.208;37.686;2022-08-03T02:11:35;99109.78;;;20.07;86.49
26635;BME280;14490;54.208;37.686;2022-08-03T02:14:04;99087.22;;;19.98;86.34
26635;BME280;14490;54.208;37.686;2022-08-03T02:16:36;99101.66;;;20.13;86.06
26635;BME280;14490;54.208;37.686;2022-08-03T02:19:05;99098.75;;;20.15;86.00
26635;BME280;14490;54.208;37.686;2022-08-03T02:21:35;99100.41;;;20.16;85.88
26635;BME280;14490;54.208;37.686;2022-08-03T02:24:04;99100.03;;;20.19;85.35
26635;BME280;14490;54.208;37.686;2022-08-03T02:26:35;99067.25;;;19.98;85.28
26635;BME280;14490;54.208;37.686;2022-08-03T02:29:10;99117.72;;;20.23;85.31
26635;BME280;14490;54.208;37.686;2022-08-03T02:31:42;99088.22;;;20.12;85.15
26635;BME280;14490;54.208;37.686;2022-08-03T02:34:13;99116.97;;;20.29;84.88
26635;BME280;14490;54.208;37.686;2022-08-03T02:36:45;99111.13;;;20.32;84.83
26635;BME280;14490;54.208;37.686;2022-08-03T02:39:17;99107.66;;;20.24;84.62
26635;BME280;14490;54.208;37.686;2022-08-03T02:41:51;99111.75;;;20.34;84.50
26635;BME280;14490;54.208;37.686;2022-08-03T02:44:27;99132.28;;;20.45;84.34
26635;BME280;14490;54.208;37.686;2022-08-03T02:47:02;99137.13;;;20.49;84.24
26635;BME280;14490;54.208;37.686;2022-08-03T02:49:33;99131.94;;;20.54;84.13
26635;BME280;14490;54.208;37.686;2022-08-03T02:52:02;99129.84;;;20.56;83.97
26635;BME280;14490;54.208;37.686;2022-08-03T02:54:31;99105.78;;;20.45;83.65
26635;BME280;14490;54.208;37.686;2022-08-03T02:57:01;99125.28;;;20.63;83.43
26635;BME280;14490;54.208;37.686;2022-08-03T02:59:30;99133.72;;;20.68;83.09
26635;BME280;14490;54.208;37.686;2022-08-03T03:02:01;99122.78;;;20.68;83.31
26635;BME280;14490;54.208;37.686;2022-08-03T03:04:29;99109.22;;;20.54;83.17
26635;BME280;14490;54.208;37.686;2022-08-03T03:06:57;99098.22;;;20.47;82.98
26635;BME280;14490;54.208;37.686;2022-08-03T03:09:25;99147.63;;;20.73;82.95
26635;BME280;14490;54.208;37.686;2022-08-03T03:11:54;99131.19;;;20.67;83.14
26635;BME280;14490;54.208;37.686;2022-08-03T03:14:23;99145.63;;;20.82;82.59
26635;BME280;14490;54.208;37.686;2022-08-03T03:16:52;99140.38;;;20.87;82.52
26635;BME280;14490;54.208;37.686;2022-08-03T03:19:24;99118.63;;;20.73;82.43
26635;BME280;14490;54.208;37.686;2022-08-03T03:21:55;99094.13;;;20.64;82.34
26635;BME280;14490;54.208;37.686;2022-08-03T03:24:24;99127.50;;;20.81;82.27
26635;BME280;14490;54.208;37.686;2022-08-03T03:26:55;99135.09;;;20.86;82.00
26635;BME280;14490;54.208;37.686;2022-08-03T03:29:24;99112.97;;;20.81;82.06
26635;BME280;14490;54.208;37.686;2022-08-03T03:32:00;99084.84;;;20.59;81.78
26635;BME280;14490;54.208;37.686;2022-08-03T03:34:32;99161.00;;;21.11;81.61
26635;BME280;14490;54.208;37.686;2022-08-03T03:37:01;99151.97;;;21.17;81.36
26635;BME280;14490;54.208;37.686;2022-08-03T03:39:30;99151.38;;;21.21;81.07
26635;BME280;14490;54.208;37.686;2022-08-03T03:41:59;99122.69;;;21.11;80.97
26635;BME280;14490;54.208;37.686;2022-08-03T03:44:27;99155.25;;;21.34;80.66
26635;BME280;14490;54.208;37.686;2022-08-03T03:46:56;99143.63;;;21.32;80.60
26635;BME280;14490;54.208;37.686;2022-08-03T03:49:24;99156.16;;;21.47;80.35
26635;BME280;14490;54.208;37.686;2022-08-03T03:51:54;99146.00;;;21.41;80.07
26635;BME280;14490;54.208;37.686;2022-08-03T03:54:22;99160.41;;;21.56;79.90
26635;BME280;14490;54.208;37.686;2022-08-03T03:56:49;99164.44;;;21.60;79.64
26635;BME280;14490;54.208;37.686;2022-08-03T03:59:17;99129.16;;;21.44;79.40
26635;BME280;14490;54.208;37.686;2022-08-03T04:01:45;99166.59;;;21.71;79.15
26635;BME280;14490;54.208;37.686;2022-08-03T04:04:12;99115.28;;;21.46;79.05
26635;BME280;14490;54.208;37.686;2022-08-03T04:06:59;99142.78;;;21.72;79.00
26635;BME280;14490;54.208;37.686;2022-08-03T04:09:45;99165.84;;;21.91;78.88
26635;BME280;14490;54.208;37.686;2022-08-03T04:12:31;99155.13;;;22.02;78.36
26635;BME280;14490;54.208;37.686;2022-08-03T04:15:00;99142.06;;;22.04;78.07
26635;BME280;14490;54.208;37.686;2022-08-03T04:17:29;99145.69;;;22.18;77.93
26635;BME280;14490;54.208;37.686;2022-08-03T04:20:00;99170.81;;;22.41;77.41
26635;BME280;14490;54.208;37.686;2022-08-03T04:22:33;99176.13;;;22.49;77.25
26635;BME280;14490;54.208;37.686;2022-08-03T04:25:08;99168.09;;;22.54;77.08
26635;BME280;14490;54.208;37.686;2022-08-03T04:27:40;99158.81;;;22.55;76.80
26635;BME280;14490;54.208;37.686;2022-08-03T04:30:10;99156.50;;;22.52;76.48
26635;BME280;14490;54.208;37.686;2022-08-03T04:32:39;99174.25;;;22.69;76.36
26635;BME280;14490;54.208;37.686;2022-08-03T04:35:08;99178.03;;;22.68;76.38
26635;BME280;14490;54.208;37.686;2022-08-03T04:37:40;99179.31;;;22.72;76.00
26635;BME280;14490;54.208;37.686;2022-08-03T04:40:13;99142.53;;;22.47;76.15
26635;BME280;14490;54.208;37.686;2022-08-03T04:42:41;99183.34;;;22.76;75.99
26635;BME280;14490;54.208;37.686;2022-08-03T04:45:11;99184.59;;;22.80;76.00
26635;BME280;14490;54.208;37.686;2022-08-03T04:47:39;99184.38;;;22.89;75.96
26635;BME280;14490;54.208;37.686;2022-08-03T04:50:09;99188.59;;;22.91;75.93
26635;BME280;14490;54.208;37.686;2022-08-03T04:52:39;99184.59;;;22.94;75.66
26635;BME280;14490;54.208;37.686;2022-08-03T04:55:07;99129.47;;;22.62;75.18
26635;BME280;14490;54.208;37.686;2022-08-03T04:57:35;99186.91;;;23.03;75.11
26635;BME280;14490;54.208;37.686;2022-08-03T05:00:04;99138.78;;;22.74;75.09
26635;BME280;14490;54.208;37.686;2022-08-03T05:02:32;99175.09;;;23.03;75.20
26635;BME280;14490;54.208;37.686;2022-08-03T05:04:59;99182.88;;;23.06;75.11
26635;BME280;14490;54.208;37.686;2022-08-03T05:07:27;99187.34;;;23.07;74.93
26635;BME280;14490;54.208;37.686;2022-08-03T05:09:56;99185.63;;;23.06;74.68
26635;BME280;14490;54.208;37.686;2022-08-03T05:12:23;99183.09;;;23.11;74.51
26635;BME280;14490;54.208;37.686;2022-08-03T05:14:51;99187.09;;;23.28;74.44
26635;BME280;14490;54.208;37.686;2022-08-03T05:17:20;99180.94;;;23.32;74.37
26635;BME280;14490;54.208;37.686;2022-08-03T05:19:47;99181.81;;;23.39;74.31
26635;BME280;14490;54.208;37.686;2022-08-03T05:22:15;99189.63;;;23.49;73.89
26635;BME280;14490;54.208;37.686;2022-08-03T05:24:43;99188.94;;;23.60;73.44
26635;BME280;14490;54.208;37.686;2022-08-03T05:27:12;99184.63;;;23.77;72.94
26635;BME280;14490;54.208;37.686;2022-08-03T05:29:44;99161.78;;;23.83;72.59
26635;BME280;14490;54.208;37.686;2022-08-03T05:32:11;99180.69;;;24.05;72.23
26635;BME280;14490;54.208;37.686;2022-08-03T05:34:39;99188.50;;;24.08;72.03
26635;BME280;14490;54.208;37.686;2022-08-03T05:37:07;99191.69;;;24.18;71.44
26635;BME280;14490;54.208;37.686;2022-08-03T05:39:35;99165.66;;;24.14;71.11
26635;BME280;14490;54.208;37.686;2022-08-03T05:42:03;99194.84;;;24.53;70.48
26635;BME280;14490;54.208;37.686;2022-08-03T05:44:32;99197.91;;;24.69;70.02
26635;BME280;14490;54.208;37.686;2022-08-03T05:47:03;99196.41;;;24.73;69.55
26635;BME280;14490;54.208;37.686;2022-08-03T05:49:30;99176.53;;;24.71;69.18
26635;BME280;14490;54.208;37.686;2022-08-03T05:51:58;99195.44;;;24.92;68.91
26635;BME280;14490;54.208;37.686;2022-08-03T05:54:25;99181.31;;;24.82;68.83
26635;BME280;14490;54.208;37.686;2022-08-03T05:56:53;99196.44;;;24.98;68.76
26635;BME280;14490;54.208;37.686;2022-08-03T05:59:21;99139.72;;;24.66;68.11
26635;BME280;14490;54.208;37.686;2022-08-03T06:01:51;99201.91;;;25.05;67.97
26635;BME280;14490;54.208;37.686;2022-08-03T06:04:19;99175.72;;;24.95;67.96
26635;BME280;14490;54.208;37.686;2022-08-03T06:06:46;99187.72;;;25.01;67.78
26635;BME280;14490;54.208;37.686;2022-08-03T06:09:15;99188.44;;;25.15;67.51
26635;BME280;14490;54.208;37.686;2022-08-03T06:11:43;99169.78;;;25.17;66.74
26635;BME280;14490;54.208;37.686;2022-08-03T06:14:10;99197.97;;;25.37;66.68
26635;BME280;14490;54.208;37.686;2022-08-03T06:16:38;99198.81;;;25.37;66.82
26635;BME280;14490;54.208;37.686;2022-08-03T06:19:07;99152.94;;;25.07;66.78
26635;BME280;14490;54.208;37.686;2022-08-03T06:21:35;99188.91;;;25.30;66.65
26635;BME280;14490;54.208;37.686;2022-08-03T06:24:03;99198.44;;;25.34;66.32
26635;BME280;14490;54.208;37.686;2022-08-03T06:26:31;99200.44;;;25.45;65.66
26635;BME280;14490;54.208;37.686;2022-08-03T06:29:00;99205.00;;;25.58;64.79
26635;BME280;14490;54.208;37.686;2022-08-03T06:31:28;99199.16;;;25.66;64.93
26635;BME280;14490;54.208;37.686;2022-08-03T06:33:55;99193.44;;;25.67;64.71
26635;BME280;14490;54.208;37.686;2022-08-03T06:36:24;99188.38;;;25.64;64.80
26635;BME280;14490;54.208;37.686;2022-08-03T06:38:56;99196.03;;;25.80;64.69
26635;BME280;14490;54.208;37.686;2022-08-03T06:41:24;99195.72;;;25.88;64.47
26635;BME280;14490;54.208;37.686;2022-08-03T06:43:52;99185.28;;;25.90;64.59
26635;BME280;14490;54.208;37.686;2022-08-03T06:46:26;99194.94;;;25.99;64.70
26635;BME280;14490;54.208;37.686;2022-08-03T06:48:53;99166.25;;;25.89;64.40
26635;BME280;14490;54.208;37.686;2022-08-03T06:51:21;99192.09;;;26.06;64.02
26635;BME280;14490;54.208;37.686;2022-08-03T06:53:50;99200.28;;;26.13;63.58
26635;BME280;14490;54.208;37.686;2022-08-03T06:56:18;99190.19;;;26.25;63.34
26635;BME280;14490;54.208;37.686;2022-08-03T06:58:46;99179.91;;;26.32;62.93
26635;BME280;14490;54.208;37.686;2022-08-03T07:01:14;99192.94;;;26.66;62.11
26635;BME280;14490;54.208;37.686;2022-08-03T07:03:42;99202.31;;;26.95;61.77
26635;BME280;14490;54.208;37.686;2022-08-03T07:06:10;99200.41;;;27.07;61.16
26635;BME280;14490;54.208;37.686;2022-08-03T07:08:38;99200.53;;;27.24;60.82
26635;BME280;14490;54.208;37.686;2022-08-03T07:11:07;99201.50;;;27.41;60.21
26635;BME280;14490;54.208;37.686;2022-08-03T07:13:35;99147.16;;;27.11;60.03
26635;BME280;14490;54.208;37.686;2022-08-03T07:16:02;99179.97;;;27.31;59.93
26635;BME280;14490;54.208;37.686;2022-08-03T07:18:30;99210.06;;;27.51;60.02
26635;BME280;14490;54.208;37.686;2022-08-03T07:20:58;99198.84;;;27.23;60.42
26635;BME280;14490;54.208;37.686;2022-08-03T07:23:25;99217.44;;;27.04;61.36
26635;BME280;14490;54.208;37.686;2022-08-03T07:25:53;99215.84;;;26.96;61.09
26635;BME280;14490;54.208;37.686;2022-08-03T07:28:22;99201.00;;;26.56;61.70
26635;BME280;14490;54.208;37.686;2022-08-03T07:30:50;99220.50;;;26.43;62.06
26635;BME280;14490;54.208;37.686;2022-08-03T07:33:17;99218.53;;;26.32;62.91
26635;BME280;14490;54.208;37.686;2022-08-03T07:35:45;99215.25;;;26.23;62.91
26635;BME280;14490;54.208;37.686;2022-08-03T07:38:13;99211.28;;;26.19;62.69
26635;BME280;14490;54.208;37.686;2022-08-03T07:40:40;99205.16;;;26.17;62.90
26635;BME280;14490;54.208;37.686;2022-08-03T07:43:08;99193.19;;;26.05;62.49
26635;BME280;14490;54.208;37.686;2022-08-03T07:45:37;99225.25;;;26.36;62.48
26635;BME280;14490;54.208;37.686;2022-08-03T07:48:05;99229.19;;;26.58;61.97
26635;BME280;14490;54.208;37.686;2022-08-03T07:50:32;99225.88;;;26.79;61.32
26635;BME280;14490;54.208;37.686;2022-08-03T07:53:00;99209.03;;;26.99;60.49
26635;BME280;14490;54.208;37.686;2022-08-03T07:55:27;99202.19;;;27.01;59.37
26635;BME280;14490;54.208;37.686;2022-08-03T07:58:03;99223.72;;;27.23;58.86
26635;BME280;14490;54.208;37.686;2022-08-03T08:00:34;99229.63;;;27.38;59.09
26635;BME280;14490;54.208;37.686;2022-08-03T08:03:03;99231.91;;;27.64;58.33
26635;BME280;14490;54.208;37.686;2022-08-03T08:05:31;99229.88;;;27.71;57.77
26635;BME280;14490;54.208;37.686;2022-08-03T08:07:59;99236.34;;;27.88;57.19
26635;BME280;14490;54.208;37.686;2022-08-03T08:10:27;99223.81;;;27.97;57.05
26635;BME280;14490;54.208;37.686;2022-08-03T08:12:56;99237.63;;;28.20;56.63
26635;BME280;14490;54.208;37.686;2022-08-03T08:15:23;99236.16;;;28.30;56.43
26635;BME280;14490;54.208;37.686;2022-08-03T08:17:52;99245.75;;;28.27;56.20
26635;BME280;14490;54.208;37.686;2022-08-03T08:20:23;99235.69;;;28.21;55.87
26635;BME280;14490;54.208;37.686;2022-08-03T08:22:51;99240.88;;;28.17;56.05
26635;BME280;14490;54.208;37.686;2022-08-03T08:25:19;99242.44;;;28.13;56.03
26635;BME280;14490;54.208;37.686;2022-08-03T08:27:48;99246.44;;;28.17;56.13
26635;BME280;14490;54.208;37.686;2022-08-03T08:30:17;99242.91;;;28.22;56.47
26635;BME280;14490;54.208;37.686;2022-08-03T08:32:46;99249.81;;;28.36;55.29
26635;BME280;14490;54.208;37.686;2022-08-03T08:35:15;99227.41;;;28.49;54.24
26635;BME280;14490;54.208;37.686;2022-08-03T08:37:45;99212.53;;;28.67;53.29
26635;BME280;14490;54.208;37.686;2022-08-03T08:40:12;99231.91;;;29.12;52.54
26635;BME280;14490;54.208;37.686;2022-08-03T08:42:41;99238.63;;;29.49;51.59
26635;BME280;14490;54.208;37.686;2022-08-03T08:45:10;99212.94;;;29.37;50.18
26635;BME280;14490;54.208;37.686;2022-08-03T08:47:44;99237.28;;;29.52;50.06
26635;BME280;14490;54.208;37.686;2022-08-03T08:50:13;99241.06;;;29.46;50.31
26635;BME280;14490;54.208;37.686;2022-08-03T08:52:46;99225.31;;;29.30;49.57
26635;BME280;14490;54.208;37.686;2022-08-03T08:55:18;99244.44;;;29.48;49.72
26635;BME280;14490;54.208;37.686;2022-08-03T08:57:49;99199.81;;;29.16;49.71
26635;BME280;14490;54.208;37.686;2022-08-03T09:00:19;99212.06;;;29.20;49.79
26635;BME280;14490;54.208;37.686;2022-08-03T09:02:47;99244.50;;;29.53;49.63
26635;BME280;14490;54.208;37.686;2022-08-03T09:05:15;99248.72;;;29.55;49.52
26635;BME280;14490;54.208;37.686;2022-08-03T09:07:46;99251.88;;;29.64;49.78
26635;BME280;14490;54.208;37.686;2022-08-03T09:10:16;99235.09;;;29.54;49.62
26635;BME280;14490;54.208;37.686;2022-08-03T09:12:49;99221.47;;;29.52;48.45
26635;BME280;14490;54.208;37.686;2022-08-03T09:15:19;99249.84;;;29.93;47.38
26635;BME280;14490;54.208;37.686;2022-08-03T09:17:48;99244.66;;;30.18;46.40
26635;BME280;14490;54.208;37.686;2022-08-03T09:20:16;99217.59;;;30.08;46.25
26635;BME280;14490;54.208;37.686;2022-08-03T09:22:54;99245.69;;;30.33;45.34
26635;BME280;14490;54.208;37.686;2022-08-03T09:25:31;99207.84;;;30.27;45.35
26635;BME280;14490;54.208;37.686;2022-08-03T09:28:08;99242.88;;;30.55;45.40
26635;BME280;14490;54.208;37.686;2022-08-03T09:30:38;99248.19;;;30.57;45.02
26635;BME280;14490;54.208;37.686;2022-08-03T09:33:09;99239.13;;;30.40;44.98
26635;BME280;14490;54.208;37.686;2022-08-03T09:35:40;99232.94;;;30.38;44.78
26635;BME280;14490;54.208;37.686;2022-08-03T09:38:12;99239.59;;;30.37;45.29
26635;BME280;14490;54.208;37.686;2022-08-03T09:40:40;99247.94;;;30.37;45.23
26635;BME280;14490;54.208;37.686;2022-08-03T09:43:09;99245.06;;;30.31;44.99
26635;BME280;14490;54.208;37.686;2022-08-03T09:45:38;99256.66;;;30.23;44.56
26635;BME280;14490;54.208;37.686;2022-08-03T09:48:20;99238.56;;;29.99;44.27
26635;BME280;14490;54.208;37.686;2022-08-03T09:50:49;99244.31;;;29.93;44.08
26635;BME280;14490;54.208;37.686;2022-08-03T09:53:19;99265.66;;;29.92;43.61
26635;BME280;14490;54.208;37.686;2022-08-03T09:55:51;99256.69;;;29.85;44.15
26635;BME280;14490;54.208;37.686;2022-08-03T09:58:21;99272.06;;;29.93;44.69
26635;BME280;14490;54.208;37.686;2022-08-03T10:00:54;99250.53;;;29.83;44.95
26635;BME280;14490;54.208;37.686;2022-08-03T10:03:24;99264.19;;;29.85;44.49
26635;BME280;14490;54.208;37.686;2022-08-03T10:05:53;99264.84;;;29.75;44.51
26635;BME280;14490;54.208;37.686;2022-08-03T10:08:22;99272.59;;;29.73;44.64
26635;BME280;14490;54.208;37.686;2022-08-03T10:10:51;99231.22;;;29.55;44.48
26635;BME280;14490;54.208;37.686;2022-08-03T10:13:21;99238.63;;;29.66;44.59
26635;BME280;14490;54.208;37.686;2022-08-03T10:15:49;99233.41;;;29.53;44.31
26635;BME280;14490;54.208;37.686;2022-08-03T10:18:16;99247.00;;;29.71;44.34
26635;BME280;14490;54.208;37.686;2022-08-03T10:20:48;99149.59;;;29.29;44.63
26635;BME280;14490;54.208;37.686;2022-08-03T10:23:18;99263.09;;;30.07;44.38
26635;BME280;14490;54.208;37.686;2022-08-03T10:25:52;99266.38;;;30.04;44.60
26635;BME280;14490;54.208;37.686;2022-08-03T10:28:22;99264.78;;;30.08;44.80
26635;BME280;14490;54.208;37.686;2022-08-03T10:30:52;99266.47;;;30.09;44.23
26635;BME280;14490;54.208;37.686;2022-08-03T10:33:23;99256.25;;;29.93;44.51
26635;BME280;14490;54.208;37.686;2022-08-03T10:35:55;99277.25;;;30.06;44.24
26635;BME280;14490;54.208;37.686;2022-08-03T10:38:28;99276.25;;;29.95;44.78
26635;BME280;14490;54.208;37.686;2022-08-03T10:41:00;99281.53;;;29.80;44.61
26635;BME280;14490;54.208;37.686;2022-08-03T10:43:33;99279.47;;;29.54;45.01
26635;BME280;14490;54.208;37.686;2022-08-03T10:46:05;99265.53;;;29.32;45.64
26635;BME280;14490;54.208;37.686;2022-08-03T10:48:34;99275.63;;;29.38;45.94
26635;BME280;14490;54.208;37.686;2022-08-03T10:51:03;99280.13;;;29.27;45.88
26635;BME280;14490;54.208;37.686;2022-08-03T10:53:35;99268.53;;;29.14;45.38
26635;BME280;14490;54.208;37.686;2022-08-03T10:59:57;99284.16;;;29.20;44.51
26635;BME280;14490;54.208;37.686;2022-08-03T11:05:44;99267.88;;;29.23;44.07
26635;BME280;14490;54.208;37.686;2022-08-03T11:08:23;99277.97;;;29.30;43.46
26635;BME280;14490;54.208;37.686;2022-08-03T11:10:58;99283.16;;;29.43;44.01
26635;BME280;14490;54.208;37.686;2022-08-03T11:13:30;99280.56;;;29.53;44.02
26635;BME280;14490;54.208;37.686;2022-08-03T11:16:01;99251.91;;;29.47;43.78
26635;BME280;14490;54.208;37.686;2022-08-03T11:18:30;99290.00;;;29.85;44.30
26635;BME280;14490;54.208;37.686;2022-08-03T11:20:59;99277.09;;;29.96;43.95
26635;BME280;14490;54.208;37.686;2022-08-03T11:23:43;99289.81;;;30.13;43.19
26635;BME280;14490;54.208;37.686;2022-08-03T11:26:16;99281.25;;;30.15;42.61
26635;BME280;14490;54.208;37.686;2022-08-03T11:28:46;99286.31;;;30.01;41.79
26635;BME280;14490;54.208;37.686;2022-08-03T11:34:24;99287.31;;;30.12;41.16
26635;BME280;14490;54.208;37.686;2022-08-03T11:37:21;99281.00;;;30.38;40.74
26635;BME280;14490;54.208;37.686;2022-08-03T11:39:53;99264.81;;;30.52;41.22
26635;BME280;14490;54.208;37.686;2022-08-03T11:42:40;99251.03;;;30.62;40.49
26635;BME280;14490;54.208;37.686;2022-08-03T11:45:14;99271.00;;;30.59;40.56
26635;BME280;14490;54.208;37.686;2022-08-03T11:47:44;99267.59;;;30.52;41.37
26635;BME280;14490;54.208;37.686;2022-08-03T11:50:13;99204.94;;;30.17;41.97
26635;BME280;14490;54.208;37.686;2022-08-03T11:52:41;99209.44;;;30.23;41.80
26635;BME280;14490;54.208;37.686;2022-08-03T11:55:15;99269.84;;;30.55;41.21
26635;BME280;14490;54.208;37.686;2022-08-03T11:57:45;99264.16;;;30.45;41.61
26635;BME280;14490;54.208;37.686;2022-08-03T12:00:22;99267.06;;;30.55;41.66
26635;BME280;14490;54.208;37.686;2022-08-03T12:03:03;99280.13;;;30.54;40.56
26635;BME280;14490;54.208;37.686;2022-08-03T12:05:35;99280.97;;;30.55;40.47
26635;BME280;14490;54.208;37.686;2022-08-03T12:08:03;99274.97;;;30.68;40.81
26635;BME280;14490;54.208;37.686;2022-08-03T12:10:35;99234.31;;;30.57;40.79
26635;BME280;14490;54.208;37.686;2022-08-03T12:13:05;99274.69;;;30.91;40.55
26635;BME280;14490;54.208;37.686;2022-08-03T12:15:35;99242.75;;;30.67;40.24
26635;BME280;14490;54.208;37.686;2022-08-03T12:18:13;99280.78;;;30.88;39.88
26635;BME280;14490;54.208;37.686;2022-08-03T12:20:42;99276.03;;;30.88;40.30
26635;BME280;14490;54.208;37.686;2022-08-03T12:23:11;99255.81;;;30.66;40.38
26635;BME280;14490;54.208;37.686;2022-08-03T12:25:40;99281.94;;;30.70;40.68
26635;BME280;14490;54.208;37.686;2022-08-03T12:28:13;99257.09;;;30.59;40.91
26635;BME280;14490;54.208;37.686;2022-08-03T12:30:50;99243.34;;;30.47;41.66
26635;BME280;14490;54.208;37.686;2022-08-03T12:33:20;99286.09;;;30.68;42.07
26635;BME280;14490;54.208;37.686;2022-08-03T12:36:04;99287.13;;;30.62;40.89
26635;BME280;14490;54.208;37.686;2022-08-03T12:38:34;99278.88;;;30.67;41.02
26635;BME280;14490;54.208;37.686;2022-08-03T12:41:05;99265.69;;;30.35;41.30
26635;BME280;14490;54.208;37.686;2022-08-03T12:43:46;99284.03;;;30.37;40.45
26635;BME280;14490;54.208;37.686;2022-08-03T12:46:17;99285.06;;;30.30;41.11
26635;BME280;14490;54.208;37.686;2022-08-03T12:49:03;99260.06;;;30.09;40.83
26635;BME280;14490;54.208;37.686;2022-08-03T12:51:34;99290.03;;;30.28;41.30
26635;BME280;14490;54.208;37.686;2022-08-03T12:54:04;99249.66;;;29.99;41.06
26635;BME280;14490;54.208;37.686;2022-08-03T12:56:31;99268.63;;;30.07;41.03
26635;BME280;14490;54.208;37.686;2022-08-03T12:58:59;99302.56;;;30.09;40.69
26635;BME280;14490;54.208;37.686;2022-08-03T13:01:36;99295.56;;;30.07;40.85
26635;BME280;14490;54.208;37.686;2022-08-03T13:04:04;99281.47;;;29.92;41.43
26635;BME280;14490;54.208;37.686;2022-08-03T13:06:32;99279.03;;;29.78;41.70
26635;BME280;14490;54.208;37.686;2022-08-03T13:09:04;99292.06;;;29.95;41.70
26635;BME280;14490;54.208;37.686;2022-08-03T13:11:33;99292.78;;;30.07;41.30
26635;BME280;14490;54.208;37.686;2022-08-03T13:14:01;99275.88;;;30.08;41.71
26635;BME280;14490;54.208;37.686;2022-08-03T13:16:29;99294.84;;;30.16;41.22
26635;BME280;14490;54.208;37.686;2022-08-03T13:18:58;99288.69;;;30.09;41.04